sensor_id;sensor_type;location;lat;lon;timestamp;temperature;humidity
13711;DHT22;6927;51.256;9.410;2024-01-30T00:01:22;1.30;19.60
13711;DHT22;6927;51.256;9.410;2024-01-30T00:03:48;1.20;31.20
13711;DHT22;6927;51.256;9.410;2024-01-30T00:06:13;1.20;39.20
13711;DHT22;6927;51.256;9.410;2024-01-30T00:08:39;1.20;46.80
13711;DHT22;6927;51.256;9.410;2024-01-30T00:11:04;1.20;67.30
13711;DHT22;6927;51.256;9.410;2024-01-30T00:13:30;1.20;51.00
13711;DHT22;6927;51.256;9.410;2024-01-30T00:15:56;1.10;68.80
13711;DHT22;6927;51.256;9.410;2024-01-30T00:18:21;1.10;89.00
13711;DHT22;6927;51.256;9.410;2024-01-30T00:20:47;1.00;79.10
13711;DHT22;6927;51.256;9.410;2024-01-30T00:23:12;1.00;99.90
13711;DHT22;6927;51.256;9.410;2024-01-30T00:25:38;1.00;99.90
13711;DHT22;6927;51.256;9.410;2024-01-30T00:28:04;1.00;99.90
13711;DHT22;6927;51.256;9.410;2024-01-30T00:30:29;1.10;99.90
13711;DHT22;6927;51.256;9.410;2024-01-30T00:32:55;1.00;99.90
13711;DHT22;6927;51.256;9.410;2024-01-30T00:35:20;1.00;99.90
13711;DHT22;6927;51.256;9.410;2024-01-30T00:37:48;1.00;99.90
13711;DHT22;6927;51.256;9.410;2024-01-30T00:40:13;1.00;99.90
13711;DHT22;6927;51.256;9.410;2024-01-30T00:42:42;1.10;99.90
13711;DHT22;6927;51.256;9.410;2024-01-30T00:45:15;1.10;99.90
13711;DHT22;6927;51.256;9.410;2024-01-30T00:47:41;1.00;99.90
13711;DHT22;6927;51.256;9.410;2024-01-30T00:50:07;1.00;99.90
13711;DHT22;6927;51.256;9.410;2024-01-30T00:52:32;1.00;99.90
13711;DHT22;6927;51.256;9.410;2024-01-30T00:54:59;0.90;99.90
13711;DHT22;6927;51.256;9.410;2024-01-30T00:57:24;0.90;99.90
13711;DHT22;6927;51.256;9.410;2024-01-30T00:59:50;0.80;99.90
13711;DHT22;6927;51.256;9.410;2024-01-30T01:02:15;0.90;99.90
13711;DHT22;6927;51.256;9.410;2024-01-30T01:04:43;1.00;99.90
13711;DHT22;6927;51.256;9.410;2024-01-30T01:07:08;1.20;99.90
13711;DHT22;6927;51.256;9.410;2024-01-30T01:09:34;1.30;99.90
13711;DHT22;6927;51.256;9.410;2024-01-30T01:11:59;1.50;99.90
13711;DHT22;6927;51.256;9.410;2024-01-30T01:14:25;1.60;99.90
13711;DHT22;6927;51.256;9.410;2024-01-30T01:16:51;1.50;99.90
13711;DHT22;6927;51.256;9.410;2024-01-30T01:19:16;1.40;99.90
13711;DHT22;6927;51.256;9.410;2024-01-30T01:21:42;1.40;99.90
13711;DHT22;6927;51.256;9.410;2024-01-30T01:24:07;1.40;99.90
13711;DHT22;6927;51.256;9.410;2024-01-30T01:26:33;1.30;99.90
13711;DHT22;6927;51.256;9.410;2024-01-30T01:28:59;1.30;99.90
13711;DHT22;6927;51.256;9.410;2024-01-30T01:31:24;1.30;99.90
13711;DHT22;6927;51.256;9.410;2024-01-30T01:33:50;1.20;99.90
13711;DHT22;6927;51.256;9.410;2024-01-30T01:36:16;1.20;99.90
13711;DHT22;6927;51.256;9.410;2024-01-30T01:38:41;1.10;99.90
13711;DHT22;6927;51.256;9.410;2024-01-30T01:41:07;1.10;99.90
13711;DHT22;6927;51.256;9.410;2024-01-30T01:43:33;1.00;99.90
13711;DHT22;6927;51.256;9.410;2024-01-30T01:45:58;1.00;99.90
13711;DHT22;6927;51.256;9.410;2024-01-30T01:48:24;0.90;99.90
13711;DHT22;6927;51.256;9.410;2024-01-30T01:50:51;0.90;99.90
13711;DHT22;6927;51.256;9.410;2024-01-30T01:53:17;0.90;99.90
13711;DHT22;6927;51.256;9.410;2024-01-30T01:55:45;0.90;99.90
13711;DHT22;6927;51.256;9.410;2024-01-30T01:58:10;0.90;99.90
13711;DHT22;6927;51.256;9.410;2024-01-30T02:00:38;0.80;99.90
13711;DHT22;6927;51.256;9.410;2024-01-30T02:03:07;0.80;99.90
13711;DHT22;6927;51.256;9.410;2024-01-30T02:05:34;0.70;99.90
13711;DHT22;6927;51.256;9.410;2024-01-30T02:07:59;0.70;99.90
13711;DHT22;6927;51.256;9.410;2024-01-30T02:10:25;0.70;99.90
13711;DHT22;6927;51.256;9.410;2024-01-30T02:12:50;0.60;99.90
13711;DHT22;6927;51.256;9.410;2024-01-30T02:15:16;0.60;99.90
13711;DHT22;6927;51.256;9.410;2024-01-30T02:17:41;0.60;99.90
13711;DHT22;6927;51.256;9.410;2024-01-30T02:20:07;0.60;99.90
13711;DHT22;6927;51.256;9.410;2024-01-30T02:22:34;0.50;99.90
13711;DHT22;6927;51.256;9.410;2024-01-30T02:25:01;0.50;99.90
13711;DHT22;6927;51.256;9.410;2024-01-30T02:27:27;0.50;99.90
13711;DHT22;6927;51.256;9.410;2024-01-30T02:29:52;0.50;99.90
13711;DHT22;6927;51.256;9.410;2024-01-30T02:32:18;0.50;99.90
13711;DHT22;6927;51.256;9.410;2024-01-30T02:34:43;0.50;99.90
13711;DHT22;6927;51.256;9.410;2024-01-30T02:37:09;0.50;99.90
13711;DHT22;6927;51.256;9.410;2024-01-30T02:39:34;0.50;99.90
13711;DHT22;6927;51.256;9.410;2024-01-30T02:42:00;0.50;99.90
13711;DHT22;6927;51.256;9.410;2024-01-30T02:44:25;0.50;99.90
13711;DHT22;6927;51.256;9.410;2024-01-30T02:46:51;0.40;99.90
13711;DHT22;6927;51.256;9.410;2024-01-30T02:49:16;0.40;99.90
13711;DHT22;6927;51.256;9.410;2024-01-30T02:51:42;0.40;99.90
13711;DHT22;6927;51.256;9.410;2024-01-30T02:54:07;0.40;99.90
13711;DHT22;6927;51.256;9.410;2024-01-30T02:56:33;0.40;99.90
13711;DHT22;6927;51.256;9.410;2024-01-30T02:58:59;0.40;99.90
13711;DHT22;6927;51.256;9.410;2024-01-30T03:01:24;0.50;99.90
13711;DHT22;6927;51.256;9.410;2024-01-30T03:03:50;0.50;99.90
13711;DHT22;6927;51.256;9.410;2024-01-30T03:06:15;0.50;99.90
13711;DHT22;6927;51.256;9.410;2024-01-30T03:08:42;0.50;99.90
13711;DHT22;6927;51.256;9.410;2024-01-30T03:11:08;0.50;99.90
13711;DHT22;6927;51.256;9.410;2024-01-30T03:13:33;0.50;99.90
13711;DHT22;6927;51.256;9.410;2024-01-30T03:15:59;0.50;99.90
13711;DHT22;6927;51.256;9.410;2024-01-30T03:18:25;0.50;99.90
13711;DHT22;6927;51.256;9.410;2024-01-30T03:20:50;0.60;99.90
13711;DHT22;6927;51.256;9.410;2024-01-30T03:23:16;0.50;99.90
13711;DHT22;6927;51.256;9.410;2024-01-30T03:25:41;0.50;99.90
13711;DHT22;6927;51.256;9.410;2024-01-30T03:28:07;0.50;99.90
13711;DHT22;6927;51.256;9.410;2024-01-30T03:30:34;0.50;99.90
13711;DHT22;6927;51.256;9.410;2024-01-30T03:32:59;0.50;99.90
13711;DHT22;6927;51.256;9.410;2024-01-30T03:35:25;0.50;99.90
13711;DHT22;6927;51.256;9.410;2024-01-30T03:37:50;0.50;99.90
13711;DHT22;6927;51.256;9.410;2024-01-30T03:40:16;0.50;99.90
13711;DHT22;6927;51.256;9.410;2024-01-30T03:42:41;0.50;99.90
13711;DHT22;6927;51.256;9.410;2024-01-30T03:45:07;0.40;99.90
13711;DHT22;6927;51.256;9.410;2024-01-30T03:47:33;0.40;99.90
13711;DHT22;6927;51.256;9.410;2024-01-30T03:49:58;0.40;99.90
13711;DHT22;6927;51.256;9.410;2024-01-30T03:52:24;0.40;99.90
13711;DHT22;6927;51.256;9.410;2024-01-30T03:54:50;0.40;99.90
13711;DHT22;6927;51.256;9.410;2024-01-30T03:57:15;0.40;99.90
13711;DHT22;6927;51.256;9.410;2024-01-30T03:59:43;0.40;99.90
13711;DHT22;6927;51.256;9.410;2024-01-30T04:02:10;0.40;99.90
13711;DHT22;6927;51.256;9.410;2024-01-30T04:04:36;0.50;99.90
13711;DHT22;6927;51.256;9.410;2024-01-30T04:07:02;0.40;99.90
13711;DHT22;6927;51.256;9.410;2024-01-30T04:09:28;0.40;99.90
13711;DHT22;6927;51.256;9.410;2024-01-30T04:11:54;0.40;99.90
13711;DHT22;6927;51.256;9.410;2024-01-30T04:14:19;0.40;99.90
13711;DHT22;6927;51.256;9.410;2024-01-30T04:16:45;0.40;99.90
13711;DHT22;6927;51.256;9.410;2024-01-30T04:19:10;0.40;99.90
13711;DHT22;6927;51.256;9.410;2024-01-30T04:21:36;0.40;99.90
13711;DHT22;6927;51.256;9.410;2024-01-30T04:24:01;0.40;99.90
13711;DHT22;6927;51.256;9.410;2024-01-30T04:26:27;0.40;99.90
13711;DHT22;6927;51.256;9.410;2024-01-30T04:28:53;0.40;99.90
13711;DHT22;6927;51.256;9.410;2024-01-30T04:31:18;0.30;99.90
13711;DHT22;6927;51.256;9.410;2024-01-30T04:33:44;0.30;99.90
13711;DHT22;6927;51.256;9.410;2024-01-30T04:36:09;0.30;99.90
13711;DHT22;6927;51.256;9.410;2024-01-30T04:38:35;0.30;99.90
13711;DHT22;6927;51.256;9.410;2024-01-30T04:41:01;0.30;99.90
13711;DHT22;6927;51.256;9.410;2024-01-30T04:43:26;0.30;99.90
13711;DHT22;6927;51.256;9.410;2024-01-30T04:45:52;0.30;99.90
13711;DHT22;6927;51.256;9.410;2024-01-30T04:48:18;0.30;99.90
13711;DHT22;6927;51.256;9.410;2024-01-30T04:50:43;0.30;99.90
13711;DHT22;6927;51.256;9.410;2024-01-30T04:53:09;0.30;99.90
13711;DHT22;6927;51.256;9.410;2024-01-30T04:55:35;0.20;99.90
13711;DHT22;6927;51.256;9.410;2024-01-30T04:58:01;0.20;99.90
13711;DHT22;6927;51.256;9.410;2024-01-30T05:00:27;0.20;99.90
13711;DHT22;6927;51.256;9.410;2024-01-30T05:02:55;0.20;99.90
13711;DHT22;6927;51.256;9.410;2024-01-30T05:05:21;0.10;99.90
13711;DHT22;6927;51.256;9.410;2024-01-30T05:07:47;0.10;99.90
13711;DHT22;6927;51.256;9.410;2024-01-30T05:10:13;0.10;99.90
13711;DHT22;6927;51.256;9.410;2024-01-30T05:12:39;0.10;99.90
13711;DHT22;6927;51.256;9.410;2024-01-30T05:15:05;0.00;99.90
13711;DHT22;6927;51.256;9.410;2024-01-30T05:17:30;0.00;99.90
13711;DHT22;6927;51.256;9.410;2024-01-30T05:22:48;0.00;99.90
13711;DHT22;6927;51.256;9.410;2024-01-30T05:25:39;0.00;99.90
13711;DHT22;6927;51.256;9.410;2024-01-30T05:28:11;-0.10;99.90
13711;DHT22;6927;51.256;9.410;2024-01-30T05:30:39;0.00;99.90
13711;DHT22;6927;51.256;9.410;2024-01-30T05:33:37;0.00;99.90
13711;DHT22;6927;51.256;9.410;2024-01-30T05:36:32;-0.10;99.90
13711;DHT22;6927;51.256;9.410;2024-01-30T05:39:32;-0.10;99.90
13711;DHT22;6927;51.256;9.410;2024-01-30T05:42:24;-0.10;99.90
13711;DHT22;6927;51.256;9.410;2024-01-30T05:44:53;0.00;99.90
13711;DHT22;6927;51.256;9.410;2024-01-30T05:47:33;-0.10;99.90
13711;DHT22;6927;51.256;9.410;2024-01-30T05:50:19;-0.10;99.90
13711;DHT22;6927;51.256;9.410;2024-01-30T05:52:45;-0.10;99.90
13711;DHT22;6927;51.256;9.410;2024-01-30T05:55:11;-0.10;99.90
13711;DHT22;6927;51.256;9.410;2024-01-30T05:57:37;-0.10;99.90
13711;DHT22;6927;51.256;9.410;2024-01-30T06:00:04;-0.10;99.90
13711;DHT22;6927;51.256;9.410;2024-01-30T06:02:30;-0.10;99.90
13711;DHT22;6927;51.256;9.410;2024-01-30T06:04:56;-0.10;99.90
13711;DHT22;6927;51.256;9.410;2024-01-30T06:07:22;-0.10;99.90
13711;DHT22;6927;51.256;9.410;2024-01-30T06:09:47;0.00;99.90
13711;DHT22;6927;51.256;9.410;2024-01-30T06:12:13;0.00;99.90
13711;DHT22;6927;51.256;9.410;2024-01-30T06:14:38;0.00;99.90
13711;DHT22;6927;51.256;9.410;2024-01-30T06:17:04;0.00;99.90
13711;DHT22;6927;51.256;9.410;2024-01-30T06:19:30;0.10;99.90
13711;DHT22;6927;51.256;9.410;2024-01-30T06:21:55;0.10;99.90
13711;DHT22;6927;51.256;9.410;2024-01-30T06:24:21;0.10;99.90
13711;DHT22;6927;51.256;9.410;2024-01-30T06:26:46;0.10;99.90
13711;DHT22;6927;51.256;9.410;2024-01-30T06:29:12;0.10;99.90
13711;DHT22;6927;51.256;9.410;2024-01-30T06:31:41;0.10;99.90
13711;DHT22;6927;51.256;9.410;2024-01-30T06:34:09;0.10;99.90
13711;DHT22;6927;51.256;9.410;2024-01-30T06:36:36;0.10;99.90
13711;DHT22;6927;51.256;9.410;2024-01-30T06:39:03;0.20;99.90
13711;DHT22;6927;51.256;9.410;2024-01-30T06:41:28;0.30;99.90
13711;DHT22;6927;51.256;9.410;2024-01-30T06:43:54;0.30;99.90
13711;DHT22;6927;51.256;9.410;2024-01-30T06:46:20;0.30;99.90
13711;DHT22;6927;51.256;9.410;2024-01-30T06:48:45;0.30;99.90
13711;DHT22;6927;51.256;9.410;2024-01-30T06:51:11;0.30;99.90
13711;DHT22;6927;51.256;9.410;2024-01-30T06:53:37;0.30;99.90
13711;DHT22;6927;51.256;9.410;2024-01-30T06:56:03;0.30;99.90
13711;DHT22;6927;51.256;9.410;2024-01-30T06:58:29;0.30;99.90
13711;DHT22;6927;51.256;9.410;2024-01-30T07:00:55;0.30;99.90
13711;DHT22;6927;51.256;9.410;2024-01-30T07:03:21;0.30;99.90
13711;DHT22;6927;51.256;9.410;2024-01-30T07:05:47;0.40;99.90
13711;DHT22;6927;51.256;9.410;2024-01-30T07:08:12;0.40;99.90
13711;DHT22;6927;51.256;9.410;2024-01-30T07:10:38;0.40;99.90
13711;DHT22;6927;51.256;9.410;2024-01-30T07:13:03;0.40;99.90
13711;DHT22;6927;51.256;9.410;2024-01-30T07:15:30;0.40;99.90
13711;DHT22;6927;51.256;9.410;2024-01-30T07:17:56;0.50;99.90
13711;DHT22;6927;51.256;9.410;2024-01-30T07:20:21;0.50;99.90
13711;DHT22;6927;51.256;9.410;2024-01-30T07:22:47;0.50;99.90
13711;DHT22;6927;51.256;9.410;2024-01-30T07:25:13;0.50;99.90
13711;DHT22;6927;51.256;9.410;2024-01-30T07:27:38;0.60;99.90
13711;DHT22;6927;51.256;9.410;2024-01-30T07:30:04;0.60;99.90
13711;DHT22;6927;51.256;9.410;2024-01-30T07:32:30;0.60;99.90
13711;DHT22;6927;51.256;9.410;2024-01-30T07:34:55;0.60;99.90
13711;DHT22;6927;51.256;9.410;2024-01-30T07:37:21;0.80;99.90
13711;DHT22;6927;51.256;9.410;2024-01-30T07:39:47;0.70;99.90
13711;DHT22;6927;51.256;9.410;2024-01-30T07:42:12;0.80;99.90
13711;DHT22;6927;51.256;9.410;2024-01-30T07:44:38;0.80;99.90
13711;DHT22;6927;51.256;9.410;2024-01-30T07:47:04;0.90;99.90
13711;DHT22;6927;51.256;9.410;2024-01-30T07:49:29;1.00;99.90
13711;DHT22;6927;51.256;9.410;2024-01-30T07:51:55;1.10;99.90
13711;DHT22;6927;51.256;9.410;2024-01-30T07:54:20;1.20;99.90
13711;DHT22;6927;51.256;9.410;2024-01-30T07:56:46;1.20;99.90
13711;DHT22;6927;51.256;9.410;2024-01-30T07:59:11;1.30;99.90
13711;DHT22;6927;51.256;9.410;2024-01-30T08:01:37;1.30;99.90
13711;DHT22;6927;51.256;9.410;2024-01-30T08:04:03;1.30;99.90
13711;DHT22;6927;51.256;9.410;2024-01-30T08:06:29;1.50;99.90
13711;DHT22;6927;51.256;9.410;2024-01-30T08:08:54;1.70;99.90
13711;DHT22;6927;51.256;9.410;2024-01-30T08:11:20;1.80;99.90
13711;DHT22;6927;51.256;9.410;2024-01-30T08:13:51;1.90;99.90
13711;DHT22;6927;51.256;9.410;2024-01-30T08:16:16;2.10;99.90
13711;DHT22;6927;51.256;9.410;2024-01-30T08:18:42;2.30;99.90
13711;DHT22;6927;51.256;9.410;2024-01-30T08:21:07;2.50;99.90
13711;DHT22;6927;51.256;9.410;2024-01-30T08:23:34;2.60;99.90
13711;DHT22;6927;51.256;9.410;2024-01-30T08:26:00;2.80;99.90
13711;DHT22;6927;51.256;9.410;2024-01-30T08:28:25;2.80;99.90
13711;DHT22;6927;51.256;9.410;2024-01-30T08:30:51;2.90;99.90
13711;DHT22;6927;51.256;9.410;2024-01-30T08:33:17;3.10;99.90
13711;DHT22;6927;51.256;9.410;2024-01-30T08:35:42;3.10;99.90
13711;DHT22;6927;51.256;9.410;2024-01-30T08:38:08;3.20;99.90
13711;DHT22;6927;51.256;9.410;2024-01-30T08:40:33;3.30;99.90
13711;DHT22;6927;51.256;9.410;2024-01-30T08:43:00;3.40;99.90
13711;DHT22;6927;51.256;9.410;2024-01-30T08:45:25;3.60;99.90
13711;DHT22;6927;51.256;9.410;2024-01-30T08:47:51;3.80;99.90
13711;DHT22;6927;51.256;9.410;2024-01-30T08:50:16;4.00;99.90
13711;DHT22;6927;51.256;9.410;2024-01-30T08:52:42;4.00;99.90
13711;DHT22;6927;51.256;9.410;2024-01-30T08:55:07;4.00;99.90
13711;DHT22;6927;51.256;9.410;2024-01-30T08:57:33;4.10;99.90
13711;DHT22;6927;51.256;9.410;2024-01-30T08:59:58;4.10;99.90
13711;DHT22;6927;51.256;9.410;2024-01-30T09:02:24;4.10;99.90
13711;DHT22;6927;51.256;9.410;2024-01-30T09:04:50;4.20;99.90
13711;DHT22;6927;51.256;9.410;2024-01-30T09:07:15;4.20;99.90
13711;DHT22;6927;51.256;9.410;2024-01-30T09:09:41;4.30;99.90
13711;DHT22;6927;51.256;9.410;2024-01-30T09:12:07;4.40;99.90
13711;DHT22;6927;51.256;9.410;2024-01-30T09:14:36;4.50;99.90
13711;DHT22;6927;51.256;9.410;2024-01-30T09:17:02;4.70;99.90
13711;DHT22;6927;51.256;9.410;2024-01-30T09:19:28;5.00;99.90
13711;DHT22;6927;51.256;9.410;2024-01-30T09:21:54;5.00;99.90
13711;DHT22;6927;51.256;9.410;2024-01-30T09:24:19;5.10;99.90
13711;DHT22;6927;51.256;9.410;2024-01-30T09:26:45;5.10;99.90
13711;DHT22;6927;51.256;9.410;2024-01-30T09:29:10;5.10;99.90
13711;DHT22;6927;51.256;9.410;2024-01-30T09:31:36;5.20;99.90
13711;DHT22;6927;51.256;9.410;2024-01-30T09:34:02;5.20;99.90
13711;DHT22;6927;51.256;9.410;2024-01-30T09:36:27;5.30;99.90
13711;DHT22;6927;51.256;9.410;2024-01-30T09:38:53;5.30;99.90
13711;DHT22;6927;51.256;9.410;2024-01-30T09:41:19;5.40;99.90
13711;DHT22;6927;51.256;9.410;2024-01-30T09:43:48;5.50;99.90
13711;DHT22;6927;51.256;9.410;2024-01-30T09:46:15;5.50;99.90
13711;DHT22;6927;51.256;9.410;2024-01-30T09:48:42;5.60;99.90
13711;DHT22;6927;51.256;9.410;2024-01-30T09:51:09;5.60;99.90
13711;DHT22;6927;51.256;9.410;2024-01-30T09:53:36;5.60;99.90
13711;DHT22;6927;51.256;9.410;2024-01-30T09:56:02;5.60;99.90
13711;DHT22;6927;51.256;9.410;2024-01-30T09:58:28;5.60;99.90
13711;DHT22;6927;51.256;9.410;2024-01-30T10:00:53;5.70;99.90
13711;DHT22;6927;51.256;9.410;2024-01-30T10:03:19;5.70;99.90
13711;DHT22;6927;51.256;9.410;2024-01-30T10:05:51;5.80;99.90
13711;DHT22;6927;51.256;9.410;2024-01-30T10:08:18;5.90;99.90
13711;DHT22;6927;51.256;9.410;2024-01-30T10:10:46;6.00;99.90
13711;DHT22;6927;51.256;9.410;2024-01-30T10:13:12;6.10;99.90
13711;DHT22;6927;51.256;9.410;2024-01-30T10:15:37;6.20;99.90
13711;DHT22;6927;51.256;9.410;2024-01-30T10:18:13;6.30;99.90
13711;DHT22;6927;51.256;9.410;2024-01-30T10:48:26;7.40;99.90
13711;DHT22;6927;51.256;9.410;2024-01-30T10:51:20;7.20;99.90
13711;DHT22;6927;51.256;9.410;2024-01-30T10:57:50;7.10;99.90
13711;DHT22;6927;51.256;9.410;2024-01-30T11:07:28;7.40;99.90
13711;DHT22;6927;51.256;9.410;2024-01-30T11:10:00;7.50;99.90
13711;DHT22;6927;51.256;9.410;2024-01-30T11:12:41;7.50;99.90
13711;DHT22;6927;51.256;9.410;2024-01-30T11:18:35;7.30;99.90
13711;DHT22;6927;51.256;9.410;2024-01-30T11:21:01;7.20;99.90
13711;DHT22;6927;51.256;9.410;2024-01-30T11:23:30;7.30;99.90
13711;DHT22;6927;51.256;9.410;2024-01-30T11:25:58;7.40;99.90
13711;DHT22;6927;51.256;9.410;2024-01-30T11:28:24;7.40;99.90
13711;DHT22;6927;51.256;9.410;2024-01-30T11:30:49;7.30;99.90
13711;DHT22;6927;51.256;9.410;2024-01-30T11:33:29;7.30;99.90
13711;DHT22;6927;51.256;9.410;2024-01-30T11:35:58;7.20;99.90
13711;DHT22;6927;51.256;9.410;2024-01-30T11:38:32;7.20;99.90
13711;DHT22;6927;51.256;9.410;2024-01-30T11:40:58;7.10;99.90
13711;DHT22;6927;51.256;9.410;2024-01-30T11:43:24;7.10;99.90
13711;DHT22;6927;51.256;9.410;2024-01-30T11:45:50;7.10;99.90
13711;DHT22;6927;51.256;9.410;2024-01-30T11:48:16;7.20;99.90
13711;DHT22;6927;51.256;9.410;2024-01-30T11:50:43;7.30;99.90
13711;DHT22;6927;51.256;9.410;2024-01-30T11:53:11;7.60;99.90
13711;DHT22;6927;51.256;9.410;2024-01-30T11:55:37;7.90;99.90
13711;DHT22;6927;51.256;9.410;2024-01-30T11:58:03;8.50;80.10
13711;DHT22;6927;51.256;9.410;2024-01-30T12:00:30;8.90;1.00
13711;DHT22;6927;51.256;9.410;2024-01-30T12:02:58;9.20;1.00
13711;DHT22;6927;51.256;9.410;2024-01-30T12:05:26;9.30;1.00
13711;DHT22;6927;51.256;9.410;2024-01-30T12:07:52;9.30;1.00
13711;DHT22;6927;51.256;9.410;2024-01-30T12:10:18;9.30;1.00
13711;DHT22;6927;51.256;9.410;2024-01-30T12:12:48;9.30;1.00
13711;DHT22;6927;51.256;9.410;2024-01-30T12:15:14;9.40;1.00
13711;DHT22;6927;51.256;9.410;2024-01-30T12:17:41;9.20;1.00
13711;DHT22;6927;51.256;9.410;2024-01-30T12:20:14;9.10;1.00
13711;DHT22;6927;51.256;9.410;2024-01-30T12:22:41;8.90;1.00
13711;DHT22;6927;51.256;9.410;2024-01-30T12:25:08;8.90;1.00
13711;DHT22;6927;51.256;9.410;2024-01-30T12:27:35;8.90;1.00
13711;DHT22;6927;51.256;9.410;2024-01-30T12:30:00;9.00;1.00
13711;DHT22;6927;51.256;9.410;2024-01-30T12:32:26;8.90;1.00
13711;DHT22;6927;51.256;9.410;2024-01-30T12:34:55;8.90;1.00
13711;DHT22;6927;51.256;9.410;2024-01-30T12:37:22;9.00;1.00
13711;DHT22;6927;51.256;9.410;2024-01-30T12:39:51;9.10;1.00
13711;DHT22;6927;51.256;9.410;2024-01-30T12:42:16;9.00;1.00
13711;DHT22;6927;51.256;9.410;2024-01-30T12:44:42;9.10;1.00
13711;DHT22;6927;51.256;9.410;2024-01-30T12:47:11;9.50;1.00
13711;DHT22;6927;51.256;9.410;2024-01-30T12:49:36;9.90;1.00
13711;DHT22;6927;51.256;9.410;2024-01-30T12:52:02;10.30;1.00
13711;DHT22;6927;51.256;9.410;2024-01-30T12:54:28;10.40;1.00
13711;DHT22;6927;51.256;9.410;2024-01-30T12:56:53;10.40;1.00
13711;DHT22;6927;51.256;9.410;2024-01-30T12:59:19;10.60;1.00
13711;DHT22;6927;51.256;9.410;2024-01-30T13:01:45;10.80;1.00
13711;DHT22;6927;51.256;9.410;2024-01-30T13:04:10;11.10;1.00
13711;DHT22;6927;51.256;9.410;2024-01-30T13:06:36;11.40;1.00
13711;DHT22;6927;51.256;9.410;2024-01-30T13:09:03;11.60;1.00
13711;DHT22;6927;51.256;9.410;2024-01-30T13:11:29;11.70;1.00
13711;DHT22;6927;51.256;9.410;2024-01-30T13:13:54;11.80;1.00
13711;DHT22;6927;51.256;9.410;2024-01-30T13:16:20;11.50;1.00
13711;DHT22;6927;51.256;9.410;2024-01-30T13:18:45;11.30;1.00
13711;DHT22;6927;51.256;9.410;2024-01-30T13:21:11;10.80;1.00
13711;DHT22;6927;51.256;9.410;2024-01-30T13:23:36;10.70;1.00
13711;DHT22;6927;51.256;9.410;2024-01-30T13:26:02;10.70;1.00
13711;DHT22;6927;51.256;9.410;2024-01-30T13:28:27;10.70;1.00
13711;DHT22;6927;51.256;9.410;2024-01-30T13:30:53;10.60;1.00
13711;DHT22;6927;51.256;9.410;2024-01-30T13:33:21;10.40;1.00
13711;DHT22;6927;51.256;9.410;2024-01-30T13:35:47;10.30;1.00
13711;DHT22;6927;51.256;9.410;2024-01-30T13:38:12;10.10;1.00
13711;DHT22;6927;51.256;9.410;2024-01-30T13:40:39;9.90;1.00
13711;DHT22;6927;51.256;9.410;2024-01-30T13:43:04;9.70;1.00
13711;DHT22;6927;51.256;9.410;2024-01-30T13:45:30;9.50;1.00
13711;DHT22;6927;51.256;9.410;2024-01-30T13:47:55;9.40;1.00
13711;DHT22;6927;51.256;9.410;2024-01-30T13:50:21;9.40;1.00
13711;DHT22;6927;51.256;9.410;2024-01-30T13:52:46;9.30;1.00
13711;DHT22;6927;51.256;9.410;2024-01-30T13:55:12;9.40;1.00
13711;DHT22;6927;51.256;9.410;2024-01-30T13:57:38;9.40;1.00
13711;DHT22;6927;51.256;9.410;2024-01-30T14:00:04;9.40;1.00
13711;DHT22;6927;51.256;9.410;2024-01-30T14:02:33;9.30;1.00
13711;DHT22;6927;51.256;9.410;2024-01-30T14:04:58;9.20;1.00
13711;DHT22;6927;51.256;9.410;2024-01-30T14:07:24;9.10;1.00
13711;DHT22;6927;51.256;9.410;2024-01-30T14:09:53;9.00;1.00
13711;DHT22;6927;51.256;9.410;2024-01-30T14:12:18;8.90;1.00
13711;DHT22;6927;51.256;9.410;2024-01-30T14:14:44;8.80;1.00
13711;DHT22;6927;51.256;9.410;2024-01-30T14:17:09;8.80;1.00
13711;DHT22;6927;51.256;9.410;2024-01-30T14:19:35;8.80;1.00
13711;DHT22;6927;51.256;9.410;2024-01-30T14:22:01;8.80;1.00
13711;DHT22;6927;51.256;9.410;2024-01-30T14:24:27;8.70;1.00
13711;DHT22;6927;51.256;9.410;2024-01-30T14:26:52;8.70;9.70
13711;DHT22;6927;51.256;9.410;2024-01-30T14:29:18;8.70;19.50
13711;DHT22;6927;51.256;9.410;2024-01-30T14:31:44;8.60;33.70
13711;DHT22;6927;51.256;9.410;2024-01-30T14:34:09;8.70;47.50
13711;DHT22;6927;51.256;9.410;2024-01-30T14:36:36;8.70;46.40
13711;DHT22;6927;51.256;9.410;2024-01-30T14:39:02;8.70;54.20
13711;DHT22;6927;51.256;9.410;2024-01-30T14:41:29;8.70;53.00
13711;DHT22;6927;51.256;9.410;2024-01-30T14:43:54;8.70;57.30
13711;DHT22;6927;51.256;9.410;2024-01-30T14:46:20;8.60;67.70
13711;DHT22;6927;51.256;9.410;2024-01-30T14:48:46;8.60;63.40
13711;DHT22;6927;51.256;9.410;2024-01-30T14:51:12;8.60;63.40
13711;DHT22;6927;51.256;9.410;2024-01-30T14:53:38;8.60;62.70
13711;DHT22;6927;51.256;9.410;2024-01-30T14:56:04;8.60;71.00
13711;DHT22;6927;51.256;9.410;2024-01-30T14:58:30;8.60;84.70
13711;DHT22;6927;51.256;9.410;2024-01-30T15:00:56;8.60;74.50
13711;DHT22;6927;51.256;9.410;2024-01-30T15:03:23;8.60;91.10
13711;DHT22;6927;51.256;9.410;2024-01-30T15:05:51;8.60;90.50
13711;DHT22;6927;51.256;9.410;2024-01-30T15:08:17;8.50;94.80
13711;DHT22;6927;51.256;9.410;2024-01-30T15:10:42;8.50;96.70
13711;DHT22;6927;51.256;9.410;2024-01-30T15:13:11;8.50;98.90
13711;DHT22;6927;51.256;9.410;2024-01-30T15:15:39;8.40;99.90
13711;DHT22;6927;51.256;9.410;2024-01-30T15:18:04;8.50;99.90
13711;DHT22;6927;51.256;9.410;2024-01-30T15:20:30;8.40;99.90
13711;DHT22;6927;51.256;9.410;2024-01-30T15:22:57;8.40;99.90
13711;DHT22;6927;51.256;9.410;2024-01-30T15:25:22;8.40;99.90
13711;DHT22;6927;51.256;9.410;2024-01-30T15:27:48;8.30;99.90
13711;DHT22;6927;51.256;9.410;2024-01-30T15:30:14;8.30;99.90
13711;DHT22;6927;51.256;9.410;2024-01-30T15:32:39;8.30;99.90
13711;DHT22;6927;51.256;9.410;2024-01-30T15:35:05;8.20;99.90
13711;DHT22;6927;51.256;9.410;2024-01-30T15:37:32;8.20;99.90
13711;DHT22;6927;51.256;9.410;2024-01-30T15:39:57;8.20;99.90
13711;DHT22;6927;51.256;9.410;2024-01-30T15:42:23;8.20;99.90
13711;DHT22;6927;51.256;9.410;2024-01-30T15:44:48;8.20;99.90
13711;DHT22;6927;51.256;9.410;2024-01-30T15:47:14;8.20;99.90
13711;DHT22;6927;51.256;9.410;2024-01-30T15:49:39;8.20;99.90
13711;DHT22;6927;51.256;9.410;2024-01-30T15:52:05;8.20;99.90
13711;DHT22;6927;51.256;9.410;2024-01-30T15:54:30;8.10;99.90
13711;DHT22;6927;51.256;9.410;2024-01-30T15:56:56;8.10;99.90
13711;DHT22;6927;51.256;9.410;2024-01-30T15:59:21;8.10;99.90
13711;DHT22;6927;51.256;9.410;2024-01-30T16:01:47;8.00;99.90
13711;DHT22;6927;51.256;9.410;2024-01-30T16:04:15;8.00;99.90
13711;DHT22;6927;51.256;9.410;2024-01-30T16:06:41;8.00;99.90
13711;DHT22;6927;51.256;9.410;2024-01-30T16:09:08;7.90;99.90
13711;DHT22;6927;51.256;9.410;2024-01-30T16:11:36;8.00;99.90
13711;DHT22;6927;51.256;9.410;2024-01-30T16:14:01;7.90;99.90
13711;DHT22;6927;51.256;9.410;2024-01-30T16:16:27;7.90;99.90
13711;DHT22;6927;51.256;9.410;2024-01-30T16:18:53;7.90;99.90
13711;DHT22;6927;51.256;9.410;2024-01-30T16:21:18;7.90;99.90
13711;DHT22;6927;51.256;9.410;2024-01-30T16:23:44;7.90;99.90
13711;DHT22;6927;51.256;9.410;2024-01-30T16:26:09;7.90;99.90
13711;DHT22;6927;51.256;9.410;2024-01-30T16:28:35;7.90;99.90
13711;DHT22;6927;51.256;9.410;2024-01-30T16:31:02;7.90;99.90
13711;DHT22;6927;51.256;9.410;2024-01-30T16:33:31;7.90;99.90
13711;DHT22;6927;51.256;9.410;2024-01-30T16:35:57;7.80;99.90
13711;DHT22;6927;51.256;9.410;2024-01-30T16:38:23;7.80;99.90
13711;DHT22;6927;51.256;9.410;2024-01-30T16:40:49;7.80;99.90
13711;DHT22;6927;51.256;9.410;2024-01-30T16:43:15;7.70;99.90